Inversion Research: Below Escarpment

*Note: All times are displayed in the local standard time of the station location.
**Rain - Equipment is designed to accurately record liquid precipitation; under conditions when precipitation is not in liquid form, the data displayed may not properly reflect rainfall values.

Date Max Temp
(°C)
Min Temp
(°C)
Avg Temp
(°C)
Rain (mm) Avg RH (%)
Mon, Oct 22, 2018 12.2 2.9 7.1 - 81.9
Sun, Oct 21, 2018 6.2 2.5 4.5 - 69.8
Sat, Oct 20, 2018 12.7 5.4 9.6 - 87.3
Fri, Oct 19, 2018 15.1 6.2 11.6 - 70.3
Thu, Oct 18, 2018 8.9 2.0 5.2 - 71.0
Wed, Oct 17, 2018 11.6 5.1 8.4 - 68.1
Tue, Oct 16, 2018 13.0 2.0 7.8 - 68.3
DateTime Avg Temp (°C) Rain (mm) RH (%)
Tue, Oct 23, 2018 01:00 3.8 - 100.0
Tue, Oct 23, 2018 00:00 4.2 - 100.0
Mon, Oct 22, 2018 23:00 3.4 - 100.0
Mon, Oct 22, 2018 22:00 6.0 - 93.5
Mon, Oct 22, 2018 21:00 8.1 - 85.8
Mon, Oct 22, 2018 20:00 9.1 - 80.8
Mon, Oct 22, 2018 19:00 9.9 - 76.5
Mon, Oct 22, 2018 18:00 10.7 - 73.5
Mon, Oct 22, 2018 17:00 11.2 - 72.8
Mon, Oct 22, 2018 16:00 11.1 - 75.3
Mon, Oct 22, 2018 15:00 11.3 - 70.3
Mon, Oct 22, 2018 14:00 11.6 - 70.5
Mon, Oct 22, 2018 13:00 11.1 - 72.3
Mon, Oct 22, 2018 12:00 10.2 - 66.0
Mon, Oct 22, 2018 11:00 9.1 - 67.0
Mon, Oct 22, 2018 10:00 7.7 - 82.3
Mon, Oct 22, 2018 09:00 5.2 - 98.0
Mon, Oct 22, 2018 08:00 4.3 - 96.3
Mon, Oct 22, 2018 07:00 4.0 - 93.5
Mon, Oct 22, 2018 06:00 3.9 - 87.5
Mon, Oct 22, 2018 05:00 4.2 - 81.3
Mon, Oct 22, 2018 04:00 3.7 - 88.5
Mon, Oct 22, 2018 03:00 3.9 - 80.0
Mon, Oct 22, 2018 02:00 3.9 - 77.8
Mon, Oct 22, 2018 01:00 4.0 - 77.0
Mon, Oct 22, 2018 00:00 4.0 - 75.5
Sun, Oct 21, 2018 23:00 4.2 - 74.8
Sun, Oct 21, 2018 22:00 4.4 - 72.8
Sun, Oct 21, 2018 21:00 4.6 - 72.0
Sun, Oct 21, 2018 20:00 5.2 - 71.3
Sun, Oct 21, 2018 19:00 5.5 - 72.3
Sun, Oct 21, 2018 18:00 6.0 - 65.5
Sun, Oct 21, 2018 17:00 5.8 - 66.8
Sun, Oct 21, 2018 16:00 5.7 - 65.5
Sun, Oct 21, 2018 15:00 5.5 - 63.5
Sun, Oct 21, 2018 14:00 5.5 - 63.0
Sun, Oct 21, 2018 13:00 5.3 - 62.5
Sun, Oct 21, 2018 12:00 4.4 - 66.3
Sun, Oct 21, 2018 11:00 3.8 - 74.0
Sun, Oct 21, 2018 10:00 3.5 - 76.5
Sun, Oct 21, 2018 09:00 2.7 - 75.3
Sun, Oct 21, 2018 08:00 2.6 - 72.5
Sun, Oct 21, 2018 07:00 2.8 - 72.8
Sun, Oct 21, 2018 06:00 2.8 - 74.0
Sun, Oct 21, 2018 05:00 3.4 - 69.0
Sun, Oct 21, 2018 04:00 4.1 - 68.5
Sun, Oct 21, 2018 03:00 5.0 - 72.3
Sun, Oct 21, 2018 02:00 5.4 - 64.5


asterix Register now to access more data! asterix